Time;durP1;ratioP1;P1;durP2;ratioP2;P2;SDS_P1;SDS_P2;PMS_P1;PMS_P2;Temp;Humidity;BMP_temperature;BMP_pressure;BME280_temperature;BME280_humidity;BME280_pressure;Samples;Min_cycle;Max_cycle;Signal;HPM_P1;HPM_P2
2021/11/27 00:01:39;;;;;;;32.25;16.30;;;;;;;-144.57;100.00;62443.72;5050802;28;20051;-64
2021/11/27 00:04:05;;;;;;;32.97;15.95;;;;;;;-144.57;100.00;62443.72;5051272;28;20384;-63
2021/11/27 00:06:32;;;;;;;32.47;16.05;;;;;;;-144.57;100.00;62443.72;5051685;28;20597;-62
2021/11/27 00:08:58;;;;;;;31.25;15.27;;;;;;;-144.57;100.00;62443.72;5054966;28;20097;-62
2021/11/27 00:11:25;;;;;;;43.85;21.52;;;;;;;-144.57;100.00;62443.72;5054691;28;20073;-62
2021/11/27 00:13:51;;;;;;;30.52;15.65;;;;;;;-144.57;100.00;62443.72;5054836;28;20045;-62
2021/11/27 00:16:17;;;;;;;29.55;16.45;;;;;;;-144.57;100.00;62443.72;5054301;28;20037;-62
2021/11/27 00:18:43;;;;;;;28.02;15.82;;;;;;;-144.57;100.00;62443.72;5054757;28;20037;-63
2021/11/27 00:21:12;;;;;;;27.92;15.85;;;;;;;-144.57;100.00;62443.72;5054501;28;20625;-61
2021/11/27 00:23:38;;;;;;;33.20;15.93;;;;;;;-144.57;100.00;62443.72;5054643;28;20046;-62
2021/11/27 00:26:07;;;;;;;31.88;16.75;;;;;;;-144.57;100.00;62443.72;5054161;28;20045;-62
2021/11/27 00:28:33;;;;;;;31.08;15.80;;;;;;;-144.57;100.00;62443.72;5054264;28;20081;-63
2021/11/27 00:31:03;;;;;;;30.48;15.75;;;;;;;-144.57;100.00;62443.72;5053117;28;20415;-63
2021/11/27 00:33:29;;;;;;;34.13;17.02;;;;;;;-144.57;100.00;62443.72;5054409;28;20040;-62
2021/11/27 00:35:55;;;;;;;34.75;17.80;;;;;;;-144.57;100.00;62443.72;5053899;28;20532;-62
2021/11/27 00:38:22;;;;;;;39.97;17.50;;;;;;;-144.57;100.00;62443.72;5052982;28;20099;-63
2021/11/27 00:40:48;;;;;;;32.85;16.92;;;;;;;-144.57;100.00;62443.72;5054118;28;20045;-63
2021/11/27 00:43:15;;;;;;;30.90;16.05;;;;;;;-144.57;100.00;62443.72;5054190;28;20068;-62
2021/11/27 00:45:42;;;;;;;35.97;17.95;;;;;;;-144.57;100.00;62443.72;5052764;28;20048;-61
2021/11/27 00:48:09;;;;;;;35.30;16.88;;;;;;;-144.57;100.00;62443.72;5052631;28;20417;-61
2021/11/27 00:50:41;;;;;;;34.28;18.90;;;;;;;-144.57;100.00;62443.72;5052391;28;20055;-62
2021/11/27 00:53:07;;;;;;;36.17;17.38;;;;;;;-144.57;100.00;62443.72;5052655;28;20041;-62
2021/11/27 00:55:33;;;;;;;34.20;17.55;;;;;;;-144.57;100.00;62443.72;5019153;28;20060;-62
2021/11/27 00:58:01;;;;;;;36.58;16.67;;;;;;;-144.57;100.00;62443.72;5036165;28;20120;-62
2021/11/27 01:00:31;;;;;;;33.40;16.27;;;;;;;-144.57;100.00;62443.72;5053863;28;20040;-62
2021/11/27 01:02:59;;;;;;;31.92;16.45;;;;;;;-144.57;100.00;62443.72;5052475;28;20033;-62
2021/11/27 01:05:26;;;;;;;32.88;16.20;;;;;;;-144.57;100.00;62443.72;5035653;28;20048;-62
2021/11/27 01:07:52;;;;;;;28.60;15.00;;;;;;;-144.57;100.00;62443.72;5052256;28;20048;-62
2021/11/27 01:10:22;;;;;;;28.98;15.32;;;;;;;-144.57;100.00;62443.72;5052202;28;20049;-62
2021/11/27 01:12:49;;;;;;;29.98;15.38;;;;;;;-144.57;100.00;62443.72;5035635;28;20044;-62
2021/11/27 01:15:19;;;;;;;32.72;15.70;;;;;;;-144.57;100.00;62443.72;5052011;28;20044;-61
2021/11/27 01:17:45;;;;;;;31.87;15.60;;;;;;;-144.57;100.00;62443.72;5051962;28;20049;-62
2021/11/27 01:20:15;;;;;;;37.22;17.23;;;;;;;-144.57;100.00;62443.72;5051970;28;20076;-62
2021/11/27 01:22:41;;;;;;;32.38;16.25;;;;;;;-144.57;100.00;62443.72;5053433;28;20059;-62
2021/11/27 01:25:08;;;;;;;34.67;16.63;;;;;;;-144.57;100.00;62443.72;5053048;28;20048;-62
2021/11/27 01:27:34;;;;;;;31.08;16.33;;;;;;;-144.57;100.00;62443.72;5051718;28;20064;-62
2021/11/27 01:30:01;;;;;;;32.10;16.38;;;;;;;-144.57;100.00;62443.72;5051796;28;20094;-62
2021/11/27 01:32:27;;;;;;;32.22;16.80;;;;;;;-144.57;100.00;62443.72;5053245;28;20414;-62
2021/11/27 01:34:53;;;;;;;33.30;16.08;;;;;;;-144.57;100.00;62443.72;5051437;28;20041;-61
2021/11/27 01:37:19;;;;;;;33.83;17.08;;;;;;;-144.57;100.00;62443.72;5052000;28;20113;-62
2021/11/27 01:39:45;;;;;;;37.28;16.73;;;;;;;-144.57;100.00;62443.72;5052833;28;20045;-62
2021/11/27 01:42:12;;;;;;;32.70;15.90;;;;;;;-144.57;100.00;62443.72;5052936;28;20045;-62
2021/11/27 01:44:39;;;;;;;31.10;15.57;;;;;;;-144.57;100.00;62443.72;5051780;28;20395;-63
2021/11/27 01:47:06;;;;;;;34.92;17.45;;;;;;;-144.57;100.00;62443.72;5051269;28;20047;-63
2021/11/27 01:49:33;;;;;;;29.65;15.98;;;;;;;-144.57;100.00;62443.72;5051575;28;20064;-62
2021/11/27 01:51:59;;;;;;;35.08;18.23;;;;;;;-144.57;100.00;62443.72;5034675;28;20037;-62
2021/11/27 01:54:25;;;;;;;34.40;17.27;;;;;;;-144.57;100.00;62443.72;5034923;28;20391;-63
2021/11/27 01:56:54;;;;;;;34.72;18.52;;;;;;;-144.57;100.00;62443.72;5051416;28;20057;-62
2021/11/27 01:59:25;;;;;;;36.97;18.30;;;;;;;-144.57;100.00;62443.72;5051529;28;20041;-63
2021/11/27 02:01:52;;;;;;;34.92;16.98;;;;;;;-144.57;100.00;62443.72;5051172;28;20477;-62
2021/11/27 02:04:23;;;;;;;39.65;16.98;;;;;;;-144.57;100.00;62443.72;5051438;28;20144;-62
2021/11/27 02:06:49;;;;;;;36.97;16.95;;;;;;;-144.57;100.00;62443.72;5034441;28;20048;-62
2021/11/27 02:09:19;;;;;;;35.45;16.20;;;;;;;-144.57;100.00;62443.72;5051302;28;20072;-62
2021/11/27 02:11:46;;;;;;;39.15;16.67;;;;;;;-144.57;100.00;62443.72;5034316;28;20503;-63
2021/11/27 02:14:12;;;;;;;37.08;16.80;;;;;;;-144.57;100.00;62443.72;5050849;28;20049;-62
2021/11/27 02:17:00;;;;;;;40.00;16.27;;;;;;;-144.57;100.00;62443.72;5051038;28;20053;-62
2021/11/27 02:19:27;;;;;;;38.75;17.10;;;;;;;-144.57;100.00;62443.72;5051100;28;20060;-62
2021/11/27 02:21:54;;;;;;;36.13;15.82;;;;;;;-144.57;100.00;62443.72;5051030;28;20043;-62
2021/11/27 02:24:23;;;;;;;37.00;16.52;;;;;;;-144.57;100.00;62443.72;5050985;28;20041;-63
2021/11/27 02:26:49;;;;;;;40.75;18.13;;;;;;;-144.57;100.00;62443.72;5052167;28;20064;-63
2021/11/27 02:29:19;;;;;;;34.80;17.92;;;;;;;-144.57;100.00;62443.72;5050212;28;20037;-62
2021/11/27 02:31:45;;;;;;;37.08;16.95;;;;;;;-144.57;100.00;62443.72;5050865;28;20114;-63
2021/11/27 02:34:13;;;;;;;37.28;16.40;;;;;;;-144.57;100.00;62443.72;5050811;28;20044;-64
2021/11/27 02:36:47;;;;;;;37.35;16.63;;;;;;;-144.57;100.00;62443.72;5051596;28;20090;-62
2021/11/27 02:39:15;;;;;;;36.13;16.15;;;;;;;-144.57;100.00;62443.72;5052029;28;20041;-64
2021/11/27 02:41:42;;;;;;;35.22;16.77;;;;;;;-144.57;100.00;62443.72;5049925;28;20055;-62
2021/11/27 02:44:09;;;;;;;35.90;16.27;;;;;;;-144.57;100.00;62443.72;5050620;28;20453;-63
2021/11/27 02:46:38;;;;;;;35.88;15.43;;;;;;;-144.57;100.00;62443.72;5049954;28;20037;-63
2021/11/27 02:49:05;;;;;;;35.00;15.25;;;;;;;-144.57;100.00;62443.72;5050611;28;20049;-62
2021/11/27 02:51:31;;;;;;;31.85;15.88;;;;;;;-144.57;100.00;62443.72;5050204;28;20051;-62
2021/11/27 02:53:57;;;;;;;34.10;15.75;;;;;;;-144.57;100.00;62443.72;5033794;28;20473;-63
2021/11/27 02:56:23;;;;;;;36.92;15.63;;;;;;;-144.57;100.00;62443.72;5049847;28;20506;-63
2021/11/27 02:58:49;;;;;;;35.85;17.15;;;;;;;-144.57;100.00;62443.72;5050305;28;20049;-62
2021/11/27 03:01:16;;;;;;;36.28;17.27;;;;;;;-144.57;100.00;62443.72;5050265;28;20052;-62
2021/11/27 03:03:42;;;;;;;27.60;15.52;;;;;;;-144.57;100.00;62443.72;5050109;28;20102;-62
2021/11/27 03:06:08;;;;;;;31.58;15.70;;;;;;;-144.57;100.00;62443.72;5051060;28;20045;-63
2021/11/27 03:08:35;;;;;;;31.30;15.43;;;;;;;-144.57;100.00;62443.72;5050150;28;20062;-62
2021/11/27 03:11:02;;;;;;;34.03;16.52;;;;;;;-144.57;100.00;62443.72;5033175;28;20045;-62
2021/11/27 03:13:36;;;;;;;34.25;16.40;;;;;;;-144.57;100.00;62443.72;5049931;28;20090;-62
2021/11/27 03:16:02;;;;;;;28.92;15.25;;;;;;;-144.57;100.00;62443.72;5049905;28;20041;-62
2021/11/27 03:18:28;;;;;;;30.50;16.15;;;;;;;-144.57;100.00;62443.72;5051343;28;20045;-61
2021/11/27 03:20:54;;;;;;;31.35;15.50;;;;;;;-144.57;100.00;62443.72;5050974;28;20049;-63
2021/11/27 03:23:21;;;;;;;33.08;15.93;;;;;;;-144.57;100.00;62443.72;5050050;28;20383;-63
2021/11/27 03:25:47;;;;;;;32.47;16.70;;;;;;;-144.57;100.00;62443.72;5049854;28;20051;-63
2021/11/27 03:28:14;;;;;;;34.05;15.90;;;;;;;-144.57;100.00;62443.72;5033272;28;20457;-63
2021/11/27 03:30:40;;;;;;;34.47;16.60;;;;;;;-144.57;100.00;62443.72;5050154;28;20044;-62
2021/11/27 03:33:08;;;;;;;31.95;16.30;;;;;;;-144.57;100.00;62443.72;5050124;28;20124;-62
2021/11/27 03:35:35;;;;;;;30.13;16.48;;;;;;;-144.57;100.00;62443.72;5049730;28;20045;-63
2021/11/27 03:38:03;;;;;;;31.83;16.30;;;;;;;-144.57;100.00;62443.72;5049850;28;20067;-62
2021/11/27 03:40:31;;;;;;;31.38;15.30;;;;;;;-144.57;100.00;62443.72;5033480;28;20037;-63
2021/11/27 03:42:59;;;;;;;30.60;16.05;;;;;;;-144.57;100.00;62443.72;5054150;28;20053;-62
2021/11/27 03:45:27;;;;;;;29.88;15.68;;;;;;;-144.57;100.00;62443.72;5053755;28;20045;-62
2021/11/27 03:48:05;;;;;;;33.42;16.27;;;;;;;-144.57;100.00;62443.72;5055289;28;20045;-63
2021/11/27 03:50:41;;;;;;;32.72;15.65;;;;;;;-144.57;100.00;62443.72;5053608;28;20099;-63
2021/11/27 03:53:08;;;;;;;28.63;16.60;;;;;;;-144.57;100.00;62443.72;5053765;28;20482;-63
2021/11/27 03:55:35;;;;;;;28.88;15.02;;;;;;;-144.57;100.00;62443.72;5053761;28;20041;-62
2021/11/27 03:58:02;;;;;;;29.05;15.88;;;;;;;-144.57;100.00;62443.72;5036872;28;20135;-64
2021/11/27 04:00:28;;;;;;;28.85;15.43;;;;;;;-144.57;100.00;62443.72;5036950;28;20052;-63
2021/11/27 04:02:54;;;;;;;30.73;16.20;;;;;;;-144.57;100.00;62443.72;5054898;28;20045;-64
2021/11/27 04:05:24;;;;;;;34.45;16.20;;;;;;;-144.57;100.00;62443.72;5054529;28;20045;-63
2021/11/27 04:07:55;;;;;;;27.45;15.75;;;;;;;-144.57;100.00;62443.72;5053331;28;20048;-63
2021/11/27 04:10:22;;;;;;;;;;;;;;;-144.57;100.00;62443.72;5054044;28;20048;-63
2021/11/27 04:12:47;;;;;;;30.15;15.68;;;;;;;-144.57;100.00;62443.72;5053431;28;19970;-62
2021/11/27 04:15:13;;;;;;;34.83;16.67;;;;;;;-144.57;100.00;62443.72;5036402;28;20048;-64
2021/11/27 04:17:42;;;;;;;30.88;14.75;;;;;;;-144.57;100.00;62443.72;5037043;28;20056;-63
2021/11/27 04:20:08;;;;;;;28.27;14.90;;;;;;;-144.57;100.00;62443.72;5053117;28;20052;-63
2021/11/27 04:22:35;;;;;;;28.42;15.25;;;;;;;-144.57;100.00;62443.72;5053049;28;20083;-62
2021/11/27 04:25:08;;;;;;;27.63;14.27;;;;;;;-144.57;100.00;62443.72;5053098;28;20498;-63
2021/11/27 04:27:35;;;;;;;31.48;15.75;;;;;;;-144.57;100.00;62443.72;5052807;28;20061;-63
2021/11/27 04:30:04;;;;;;;32.90;16.27;;;;;;;-144.57;100.00;62443.72;5052880;28;20048;-62
2021/11/27 04:32:30;;;;;;;28.90;16.60;;;;;;;-144.57;100.00;62443.72;5036190;28;20048;-63
2021/11/27 04:35:09;;;;;;;32.47;15.32;;;;;;;-144.57;100.00;62443.72;5053185;28;20037;-63
2021/11/27 04:37:36;;;;;;;31.02;15.82;;;;;;;-144.57;100.00;62443.72;5052761;28;20049;-63
2021/11/27 04:40:04;;;;;;;28.65;15.07;;;;;;;-144.57;100.00;62443.72;5052748;28;20048;-63
2021/11/27 04:42:30;;;;;;;32.10;15.95;;;;;;;-144.57;100.00;62443.72;5052827;28;20052;-63
2021/11/27 04:44:56;;;;;;;29.52;15.15;;;;;;;-144.57;100.00;62443.72;5052646;28;20091;-63
2021/11/27 04:47:22;;;;;;;33.53;16.50;;;;;;;-144.57;100.00;62443.72;5052867;28;20066;-63
2021/11/27 04:49:49;;;;;;;27.60;15.38;;;;;;;-144.57;100.00;62443.72;5052553;28;20067;-64
2021/11/27 04:52:15;;;;;;;30.83;15.63;;;;;;;-144.57;100.00;62443.72;5035402;28;20048;-63
2021/11/27 04:54:42;;;;;;;29.63;15.43;;;;;;;-144.57;100.00;62443.72;5052723;28;20037;-63
2021/11/27 04:57:08;;;;;;;30.00;16.05;;;;;;;-144.57;100.00;62443.72;5052500;28;20059;-62
2021/11/27 04:59:36;;;;;;;31.90;16.40;;;;;;;-144.57;100.00;62443.72;5052637;28;20068;-63
2021/11/27 05:02:02;;;;;;;32.38;16.27;;;;;;;-144.57;100.00;62443.72;5052255;28;20529;-63
2021/11/27 05:04:28;;;;;;;30.08;15.70;;;;;;;-144.57;100.00;62443.72;5052394;28;20051;-64
2021/11/27 05:06:55;;;;;;;33.28;16.58;;;;;;;-144.57;100.00;62443.72;5035827;28;20040;-63
2021/11/27 05:09:22;;;;;;;29.80;15.85;;;;;;;-144.57;100.00;62443.72;5052411;28;20055;-64
2021/11/27 05:11:48;;;;;;;33.80;15.90;;;;;;;-144.57;100.00;62443.72;5052392;28;20044;-62
2021/11/27 05:14:15;;;;;;;31.40;16.60;;;;;;;-144.57;100.00;62443.72;5035937;28;20048;-63
2021/11/27 05:16:42;;;;;;;26.77;14.75;;;;;;;-144.57;100.00;62443.72;5051981;28;20049;-62
2021/11/27 05:19:08;;;;;;;31.40;16.08;;;;;;;-144.57;100.00;62443.72;5052156;28;20045;-63
2021/11/27 05:21:48;;;;;;;26.98;15.75;;;;;;;-144.57;100.00;62443.72;5037305;28;20494;-63
2021/11/27 05:24:14;;;;;;;30.67;16.33;;;;;;;-144.57;100.00;62443.72;5051937;28;20524;-63
2021/11/27 05:26:59;;;;;;;29.88;16.48;;;;;;;-144.57;100.00;62443.72;5053026;28;20044;-63
2021/11/27 05:29:41;;;;;;;28.83;15.45;;;;;;;-144.57;100.00;62443.72;5053321;28;20450;-62
2021/11/27 05:34:54;;;;;;;31.00;16.17;;;;;;;-144.57;100.00;62443.72;5051607;28;20041;-63
2021/11/27 05:37:20;;;;;;;30.70;15.70;;;;;;;-144.57;100.00;62443.72;5018679;28;20048;-63
2021/11/27 05:39:47;;;;;;;28.23;14.90;;;;;;;-144.57;100.00;62443.72;5053083;28;20067;-64
2021/11/27 05:42:14;;;;;;;32.80;14.68;;;;;;;-144.57;100.00;62443.72;5052987;28;20051;-63
2021/11/27 05:44:46;;;;;;;30.52;15.60;;;;;;;-144.57;100.00;62443.72;5051809;28;20095;-63
2021/11/27 05:47:13;;;;;;;27.60;15.15;;;;;;;-144.57;100.00;62443.72;5051662;28;20052;-62
2021/11/27 05:49:41;;;;;;;29.60;15.55;;;;;;;-144.57;100.00;62443.72;5052519;28;20044;-64
2021/11/27 05:52:18;;;;;;;28.25;14.70;;;;;;;-144.57;100.00;62443.72;5051642;28;20045;-63
2021/11/27 05:54:43;;;;;;;29.30;14.20;;;;;;;-144.57;100.00;62443.72;5052827;28;20509;-62
2021/11/27 05:57:09;;;;;;;31.60;15.63;;;;;;;-144.57;100.00;62443.72;5052310;28;20045;-63
2021/11/27 05:59:36;;;;;;;28.67;15.40;;;;;;;-144.57;100.00;62443.72;5052697;28;20041;-63
2021/11/27 06:02:02;;;;;;;30.73;14.43;;;;;;;-144.57;100.00;62443.72;5052365;28;20057;-63
2021/11/27 06:04:28;;;;;;;28.02;14.13;;;;;;;-144.57;100.00;62443.72;5052108;28;20052;-63
2021/11/27 06:06:53;;;;;;;24.60;13.77;;;;;;;-144.57;100.00;62443.72;5051326;28;20044;-62
2021/11/27 06:09:19;;;;;;;29.17;14.27;;;;;;;-144.57;100.00;62443.72;5034744;28;20052;-63
2021/11/27 06:11:46;;;;;;;26.00;13.63;;;;;;;-144.57;100.00;62443.72;5052222;28;20120;-63
2021/11/27 06:14:11;;;;;;;28.67;14.02;;;;;;;-144.57;100.00;62443.72;5052655;28;20049;-63
2021/11/27 06:16:38;;;;;;;24.77;12.63;;;;;;;-144.57;100.00;62443.72;5052144;28;20043;-63
2021/11/27 06:19:04;;;;;;;25.83;14.52;;;;;;;-144.57;100.00;62443.72;5051026;28;20045;-64
2021/11/27 06:21:30;;;;;;;27.00;14.98;;;;;;;-144.57;100.00;62443.72;5052139;28;20047;-63
2021/11/27 06:23:56;;;;;;;27.75;14.13;;;;;;;-144.57;100.00;62443.72;5050652;28;20049;-64
2021/11/27 06:26:23;;;;;;;25.35;13.85;;;;;;;-144.57;100.00;62443.72;5050496;28;20115;-63
2021/11/27 06:28:49;;;;;;;28.67;14.05;;;;;;;-144.57;100.00;62443.72;5050946;28;20045;-63
2021/11/27 06:31:15;;;;;;;26.30;13.05;;;;;;;-144.57;100.00;62443.72;5052034;28;20037;-64
2021/11/27 06:33:41;;;;;;;27.33;12.88;;;;;;;-144.57;100.00;62443.72;5051691;28;20041;-64
2021/11/27 06:36:07;;;;;;;28.27;12.85;;;;;;;-144.57;100.00;62443.72;5051515;28;20037;-63
2021/11/27 06:38:33;;;;;;;27.63;13.30;;;;;;;-144.57;100.00;62443.72;5051949;28;20047;-63
2021/11/27 06:40:59;;;;;;;26.42;14.32;;;;;;;-144.57;100.00;62443.72;5051865;28;20490;-64
2021/11/27 06:43:36;;;;;;;28.05;14.15;;;;;;;-144.57;100.00;62443.72;5050643;28;20418;-65
2021/11/27 06:46:10;;;;;;;23.58;12.63;;;;;;;-144.57;100.00;62443.72;5050205;28;20148;-64
2021/11/27 06:48:36;;;;;;;24.70;13.85;;;;;;;-144.57;100.00;62443.72;5051564;28;20574;-63
2021/11/27 06:51:03;;;;;;;28.70;13.65;;;;;;;-144.57;100.00;62443.72;5050628;28;20041;-62
2021/11/27 06:53:29;;;;;;;29.27;13.70;;;;;;;-144.57;100.00;62443.72;5051906;28;20087;-63
2021/11/27 06:55:57;;;;;;;25.73;13.68;;;;;;;-144.57;100.00;62443.72;5051615;28;20049;-63
2021/11/27 06:58:25;;;;;;;26.60;12.93;;;;;;;-144.57;100.00;62443.72;5051572;28;20080;-64
2021/11/27 07:01:08;;;;;;;27.90;12.95;;;;;;;-144.57;100.00;62443.72;5050093;28;20140;-64
2021/11/27 07:04:06;;;;;;;30.92;14.05;;;;;;;-144.57;100.00;62443.72;5039020;28;20103;-64
2021/11/27 07:07:02;;;;;;;23.05;11.55;;;;;;;-144.57;100.00;62443.72;5045855;28;20084;-63
2021/11/27 07:09:46;;;;;;;27.83;11.82;;;;;;;-144.57;100.00;62443.72;5050021;28;20506;-62
2021/11/27 07:12:29;;;;;;;22.83;11.52;;;;;;;-144.57;100.00;62443.72;5050327;28;20064;-63
2021/11/27 07:14:55;;;;;;;27.20;12.40;;;;;;;-144.57;100.00;62443.72;5033326;28;20059;-64
2021/11/27 07:17:21;;;;;;;21.45;11.80;;;;;;;-144.57;100.00;62443.72;5051074;28;20136;-63
2021/11/27 07:19:47;;;;;;;25.67;11.15;;;;;;;-144.57;100.00;62443.72;5050995;28;20053;-63
2021/11/27 07:22:13;;;;;;;21.83;11.50;;;;;;;-144.57;100.00;62443.72;5051315;28;20680;-62
2021/11/27 07:24:39;;;;;;;22.42;11.40;;;;;;;-144.57;100.00;62443.72;5050695;28;20095;-64
2021/11/27 07:27:08;;;;;;;26.08;10.95;;;;;;;-144.57;100.00;62443.72;5049613;28;20053;-63
2021/11/27 07:29:36;;;;;;;24.00;10.95;;;;;;;-144.57;100.00;62443.72;5051130;28;20052;-63
2021/11/27 07:32:02;;;;;;;20.05;10.68;;;;;;;-144.57;100.00;62443.72;5041900;28;20073;-66
2021/11/27 07:34:28;;;;;;;20.02;10.15;;;;;;;-144.57;100.00;62443.72;5030683;28;20069;-65
2021/11/27 07:36:54;;;;;;;23.30;10.80;;;;;;;-144.57;100.00;62443.72;5013077;28;20129;-64
2021/11/27 07:39:20;;;;;;;18.30;10.38;;;;;;;-144.57;100.00;62443.72;5029950;28;20045;-64
2021/11/27 07:41:46;;;;;;;19.95;9.32;;;;;;;-144.57;100.00;62443.72;5029733;28;20128;-64
2021/11/27 07:44:16;;;;;;;21.08;9.85;;;;;;;-144.57;100.00;62443.72;5013263;28;20042;-65
2021/11/27 07:47:11;;;;;;;25.88;10.32;;;;;;;-144.57;100.00;62443.72;5029426;28;20511;-65
2021/11/27 07:49:55;;;;;;;32.08;10.60;;;;;;;-144.57;100.00;62443.72;5030726;28;20045;-69
2021/11/27 07:52:41;;;;;;;21.77;9.65;;;;;;;-144.57;100.00;62443.72;5030916;28;20053;-64
2021/11/27 07:55:07;;;;;;;24.65;8.93;;;;;;;-144.57;100.00;62443.72;5030650;28;20466;-63
2021/11/27 07:57:33;;;;;;;20.58;10.05;;;;;;;-144.57;100.00;62443.72;5030785;28;20510;-64
2021/11/27 07:59:59;;;;;;;24.77;10.07;;;;;;;-144.57;100.00;62443.72;5030471;28;20042;-66
2021/11/27 08:02:25;;;;;;;19.58;9.75;;;;;;;-144.57;100.00;62443.72;5028977;28;20069;-64
2021/11/27 08:04:51;;;;;;;13.35;8.57;;;;;;;-144.57;100.00;62443.72;5012872;28;20503;-65
2021/11/27 08:07:17;;;;;;;20.60;9.80;;;;;;;-144.57;100.00;62443.72;5030608;28;20086;-67
2021/11/27 08:09:42;;;;;;;18.20;9.35;;;;;;;-144.57;100.00;62443.72;5030591;28;20041;-71
2021/11/27 08:12:08;;;;;;;18.63;10.27;;;;;;;-144.57;100.00;62443.72;5027882;28;20045;-63
2021/11/27 08:14:34;;;;;;;18.80;9.45;;;;;;;-144.57;100.00;62443.72;5029927;28;20514;-63
2021/11/27 08:17:01;;;;;;;20.02;9.90;;;;;;;-144.57;100.00;62443.72;5028222;28;20097;-63
2021/11/27 08:19:28;;;;;;;19.60;9.40;;;;;;;-144.57;100.00;62443.72;5013063;28;20175;-63
2021/11/27 08:21:54;;;;;;;23.20;10.00;;;;;;;-144.57;100.00;62443.72;5028604;28;20037;-64
2021/11/27 08:24:21;;;;;;;21.60;11.02;;;;;;;-144.57;100.00;62443.72;5030852;28;20045;-63
2021/11/27 08:26:47;;;;;;;25.90;11.52;;;;;;;-144.57;100.00;62443.72;5030269;28;20068;-63
2021/11/27 08:29:13;;;;;;;19.98;10.40;;;;;;;-144.57;100.00;62443.72;5034113;28;20049;-64
2021/11/27 08:31:39;;;;;;;25.42;11.38;;;;;;;-144.57;100.00;62443.72;4999332;28;20534;-64
2021/11/27 08:34:06;;;;;;;22.15;11.30;;;;;;;-144.57;100.00;62443.72;5034300;28;20483;-63
2021/11/27 08:36:32;;;;;;;23.92;10.82;;;;;;;-144.57;100.00;62443.72;5032367;28;20053;-63
2021/11/27 08:38:59;;;;;;;22.02;10.15;;;;;;;-144.57;100.00;62443.72;5034210;28;20065;-63
2021/11/27 08:41:24;;;;;;;28.90;11.35;;;;;;;-144.57;100.00;62443.72;5033994;28;20037;-64
2021/11/27 08:43:51;;;;;;;21.90;11.98;;;;;;;-144.57;100.00;62443.72;5032458;28;20882;-63
2021/11/27 08:46:17;;;;;;;21.90;11.68;;;;;;;-144.57;100.00;62443.72;5032235;28;20037;-63
2021/11/27 08:48:43;;;;;;;23.42;12.23;;;;;;;-144.57;100.00;62443.72;5049197;28;20060;-64
2021/11/27 08:51:10;;;;;;;28.30;12.25;;;;;;;-144.57;100.00;62443.72;5033833;28;20050;-64
2021/11/27 08:53:36;;;;;;;26.35;11.00;;;;;;;-144.57;100.00;62443.72;5033934;28;20048;-64
2021/11/27 08:56:05;;;;;;;25.45;12.70;;;;;;;-144.57;100.00;62443.72;5033492;28;20049;-64
2021/11/27 08:58:31;;;;;;;25.33;12.50;;;;;;;-144.57;100.00;62443.72;5033537;28;20053;-64
2021/11/27 09:00:57;;;;;;;22.98;10.80;;;;;;;-144.57;100.00;62443.72;5032855;28;20557;-63
2021/11/27 09:03:23;;;;;;;23.15;11.98;;;;;;;-144.57;100.00;62443.72;5033797;28;20049;-63
2021/11/27 09:05:49;;;;;;;26.05;13.15;;;;;;;-144.57;100.00;62443.72;5033467;28;20168;-63
2021/11/27 09:08:16;;;;;;;25.23;11.93;;;;;;;-144.57;100.00;62443.72;5044890;28;20120;-62
2021/11/27 09:10:42;;;;;;;26.00;12.43;;;;;;;-144.57;100.00;62443.72;5053149;28;20052;-64
2021/11/27 09:13:10;;;;;;;26.38;12.90;;;;;;;-144.57;100.00;62443.72;5035544;28;20045;-63
2021/11/27 09:15:36;;;;;;;23.27;12.88;;;;;;;-144.57;100.00;62443.72;5050882;28;20132;-66
2021/11/27 09:18:02;;;;;;;30.05;14.30;;;;;;;-144.57;100.00;62443.72;5051305;28;20045;-63
2021/11/27 09:20:32;;;;;;;32.65;13.90;;;;;;;-144.57;100.00;62443.72;5049931;28;20072;-64
2021/11/27 09:22:59;;;;;;;28.87;13.13;;;;;;;-144.57;100.00;62443.72;5016962;28;20037;-63
2021/11/27 09:25:28;;;;;;;23.75;12.45;;;;;;;-144.57;100.00;62443.72;5051117;28;20352;-63
2021/11/27 09:27:58;;;;;;;33.50;14.27;;;;;;;-144.57;100.00;62443.72;5031454;28;20046;-62
2021/11/27 09:30:28;;;;;;;30.92;13.75;;;;;;;-144.57;100.00;62443.72;5032748;28;20053;-64
2021/11/27 09:32:55;;;;;;;27.90;11.93;;;;;;;-144.57;100.00;62443.72;5031972;28;20072;-62
2021/11/27 09:35:22;;;;;;;29.15;14.13;;;;;;;-144.57;100.00;62443.72;5031463;28;20457;-64
2021/11/27 09:37:49;;;;;;;24.10;12.82;;;;;;;-144.57;100.00;62443.72;5029720;28;20524;-62
2021/11/27 09:40:16;;;;;;;31.92;13.25;;;;;;;-144.57;100.00;62443.72;5028964;28;20037;-63
2021/11/27 09:42:42;;;;;;;27.67;14.05;;;;;;;-144.57;100.00;62443.72;5031224;28;20060;-63
2021/11/27 09:45:09;;;;;;;33.90;15.13;;;;;;;-144.57;100.00;62443.72;5029965;28;20064;-62
2021/11/27 09:47:35;;;;;;;29.15;14.43;;;;;;;-144.57;100.00;62443.72;5029696;28;20080;-62
2021/11/27 09:50:07;;;;;;;30.77;14.02;;;;;;;-144.57;100.00;62443.72;5030996;28;20115;-63
2021/11/27 09:52:34;;;;;;;32.80;16.25;;;;;;;-144.57;100.00;62443.72;5030745;28;20048;-61
2021/11/27 09:55:02;;;;;;;33.85;15.68;;;;;;;-144.57;100.00;62443.72;5029416;28;20085;-61
2021/11/27 09:57:29;;;;;;;33.17;16.55;;;;;;;-144.57;100.00;62443.72;5031010;28;20064;-62
2021/11/27 09:59:55;;;;;;;26.95;14.45;;;;;;;-144.57;100.00;62443.72;5046011;28;20183;-63
2021/11/27 10:02:23;;;;;;;33.33;15.23;;;;;;;-144.57;100.00;62443.72;5012105;28;20116;-63
2021/11/27 10:04:51;;;;;;;30.45;15.30;;;;;;;-144.57;100.00;62443.72;5030697;28;20061;-63
2021/11/27 10:07:18;;;;;;;32.35;16.08;;;;;;;-144.57;100.00;62443.72;5031361;28;20067;-64
2021/11/27 10:09:46;;;;;;;32.17;16.60;;;;;;;-144.57;100.00;62443.72;5047365;28;20525;-64
2021/11/27 10:12:12;;;;;;;31.02;15.63;;;;;;;-144.57;100.00;62443.72;5050643;28;20048;-63
2021/11/27 10:14:39;;;;;;;33.78;15.65;;;;;;;-144.57;100.00;62443.72;5050888;28;20036;-63
2021/11/27 10:17:18;;;;;;;32.33;16.48;;;;;;;-144.57;100.00;62443.72;5033719;28;20041;-63
2021/11/27 10:19:50;;;;;;;34.17;16.23;;;;;;;-144.57;100.00;62443.72;5051933;28;20446;-62
2021/11/27 10:22:20;;;;;;;41.53;17.13;;;;;;;-144.57;100.00;62443.72;5050599;28;20076;-63
2021/11/27 10:24:50;;;;;;;35.22;17.83;;;;;;;-144.57;100.00;62443.72;5051629;28;20359;-63
2021/11/27 10:27:21;;;;;;;34.17;16.70;;;;;;;-144.57;100.00;62443.72;5051732;28;20068;-62
2021/11/27 10:30:08;;;;;;;31.52;15.27;;;;;;;-144.57;100.00;62443.72;5050246;28;20048;-63
2021/11/27 10:32:38;;;;;;;37.05;15.95;;;;;;;-144.57;100.00;62443.72;5051507;28;20095;-63
2021/11/27 10:35:09;;;;;;;33.92;17.15;;;;;;;-144.57;100.00;62443.72;5050241;28;20040;-63
2021/11/27 10:37:46;;;;;;;31.73;16.35;;;;;;;-144.57;100.00;62443.72;5050208;28;20140;-61
2021/11/27 10:40:24;;;;;;;33.63;16.08;;;;;;;-144.57;100.00;62443.72;5051444;28;20041;-63
2021/11/27 10:42:59;;;;;;;36.45;16.75;;;;;;;-144.57;100.00;62443.72;5051619;28;20482;-63
2021/11/27 10:45:28;;;;;;;34.65;15.93;;;;;;;-144.57;100.00;62443.72;5048138;28;20052;-63
2021/11/27 10:48:15;;;;;;;36.33;16.83;;;;;;;-144.57;100.00;62443.72;5049926;28;20037;-64
2021/11/27 10:50:50;;;;;;;39.97;17.15;;;;;;;-144.57;100.00;62443.72;5048195;28;20090;-64
2021/11/27 10:53:21;;;;;;;31.33;15.45;;;;;;;-144.57;100.00;62443.72;5051337;28;20037;-63
2021/11/27 10:55:48;;;;;;;32.58;16.08;;;;;;;-144.57;100.00;62443.72;5051359;28;20051;-63
2021/11/27 10:58:14;;;;;;;35.28;15.55;;;;;;;-144.57;100.00;62443.72;5051484;28;20045;-63
2021/11/27 11:00:43;;;;;;;35.38;16.55;;;;;;;-144.57;100.00;62443.72;5049277;28;20044;-64
2021/11/27 11:03:27;;;;;;;31.65;14.95;;;;;;;-144.57;100.00;62443.72;5049978;28;20140;-64